Time;durP1;ratioP1;P1;durP2;ratioP2;P2;SDS_P1;SDS_P2;PMS_P1;PMS_P2;Temp;Humidity;BMP_temperature;BMP_pressure;BME280_temperature;BME280_humidity;BME280_pressure;Samples;Min_cycle;Max_cycle;Signal;HPM_P1;HPM_P2
2022/06/16 00:02:32;;;;;;;9.95;2.72;;;17.10;99.90;;;;;;7348746;32;20248;-64
2022/06/16 00:06:34;;;;;;;7.85;2.92;;;17.10;99.90;;;;;;7348793;32;20115;-65
2022/06/16 00:10:37;;;;;;;4.80;2.45;;;17.00;99.90;;;;;;7347213;32;20194;-65
2022/06/16 00:14:39;;;;;;;6.32;2.80;;;16.90;99.90;;;;;;7345913;32;20210;-65
2022/06/16 00:18:41;;;;;;;6.35;2.70;;;16.90;99.90;;;;;;7345262;32;20137;-60
2022/06/16 00:22:43;;;;;;;6.32;3.03;;;16.90;99.90;;;;;;7350168;32;20511;-65
2022/06/16 00:26:44;;;;;;;5.50;3.00;;;16.90;99.90;;;;;;7346702;32;20111;-62
2022/06/16 00:30:46;;;;;;;6.57;2.80;;;16.90;99.90;;;;;;7343695;32;20129;-61
2022/06/16 00:34:48;;;;;;;8.50;3.40;;;16.80;99.90;;;;;;7345228;32;20189;-61
2022/06/16 00:38:50;;;;;;;8.07;2.65;;;16.70;99.90;;;;;;7337217;32;20111;-61
2022/06/16 00:42:52;;;;;;;12.23;2.85;;;16.70;99.90;;;;;;7340440;32;20307;-63
2022/06/16 00:46:53;;;;;;;8.75;2.80;;;16.70;99.90;;;;;;7346768;32;20175;-62
2022/06/16 00:51:11;;;;;;;8.52;3.00;;;16.60;99.90;;;;;;7343228;32;20202;-61
2022/06/16 00:55:15;;;;;;;7.68;3.40;;;16.60;99.90;;;;;;7348930;32;20114;-60
2022/06/16 00:59:19;;;;;;;7.55;3.28;;;16.50;99.90;;;;;;7340595;32;20111;-62
2022/06/16 01:07:44;;;;;;;6.22;2.70;;;16.40;99.90;;;;;;7340394;32;20112;-61
2022/06/16 01:16:32;;;;;;;9.93;2.97;;;16.30;99.90;;;;;;7337926;32;20149;-60
2022/06/16 01:20:49;;;;;;;3.60;2.75;;;16.20;99.90;;;;;;7339060;32;20328;-61
2022/06/16 01:25:22;;;;;;;6.70;3.15;;;16.20;99.90;;;;;;7345495;32;20114;-61
2022/06/16 01:29:52;;;;;;;8.68;3.35;;;16.10;99.90;;;;;;7343206;32;20613;-63
2022/06/16 01:34:12;;;;;;;8.05;3.47;;;16.10;99.90;;;;;;7343762;32;20115;-63
2022/06/16 01:38:24;;;;;;;5.93;3.10;;;16.00;99.90;;;;;;7341480;32;20229;-61
2022/06/16 01:42:55;;;;;;;6.07;3.40;;;15.90;99.90;;;;;;7342017;32;20532;-61
2022/06/16 01:47:05;;;;;;;11.05;3.45;;;15.80;99.90;;;;;;7342743;32;20598;-62
2022/06/16 01:51:13;;;;;;;8.75;3.50;;;15.80;99.90;;;;;;7342005;32;20150;-62
2022/06/16 01:55:20;;;;;;;9.90;3.65;;;15.80;99.90;;;;;;7341421;32;20118;-64
2022/06/16 01:59:27;;;;;;;7.50;3.37;;;15.80;99.90;;;;;;7343179;32;20178;-61
2022/06/16 02:03:37;;;;;;;5.80;3.40;;;15.70;99.90;;;;;;7335184;32;20191;-61
2022/06/16 02:07:45;;;;;;;8.93;3.60;;;15.80;99.90;;;;;;7344043;32;20183;-61
2022/06/16 02:11:47;;;;;;;7.97;3.22;;;15.80;99.90;;;;;;7342635;32;20593;-63
2022/06/16 02:16:00;;;;;;;6.05;3.10;;;15.70;99.90;;;;;;7335750;32;20882;-61
2022/06/16 02:20:03;;;;;;;7.87;3.72;;;15.70;99.90;;;;;;7337924;32;20132;-62
2022/06/16 02:24:08;;;;;;;9.68;3.22;;;15.60;99.90;;;;;;7342170;32;20111;-62
2022/06/16 02:28:12;;;;;;;7.75;3.37;;;15.50;99.90;;;;;;7344592;32;20274;-61
2022/06/16 02:32:13;;;;;;;5.87;3.03;;;15.50;99.90;;;;;;7340564;32;20715;-62
2022/06/16 02:36:47;;;;;;;9.60;3.58;;;15.40;99.90;;;;;;7333250;32;20111;-61
2022/06/16 02:41:17;;;;;;;4.90;2.90;;;15.40;99.90;;;;;;7341122;32;20607;-62
2022/06/16 02:45:48;;;;;;;7.80;3.05;;;15.40;99.90;;;;;;7343417;32;20456;-61
2022/06/16 02:50:04;;;;;;;9.95;2.83;;;15.20;99.90;;;;;;7339784;32;20227;-61
2022/06/16 02:54:24;;;;;;;7.12;3.42;;;15.10;99.90;;;;;;7342874;32;20242;-63
2022/06/16 02:58:28;;;;;;;5.97;2.80;;;15.00;99.90;;;;;;7346720;32;20257;-62
2022/06/16 03:02:30;;;;;;;10.05;3.90;;;14.90;99.90;;;;;;7345080;32;20206;-61
2022/06/16 03:06:32;;;;;;;7.18;3.87;;;14.90;99.90;;;;;;7343527;32;20444;-62
2022/06/16 03:10:52;;;;;;;9.27;3.05;;;14.90;99.90;;;;;;7345859;32;20178;-63
2022/06/16 03:14:54;;;;;;;10.48;3.30;;;14.90;99.90;;;;;;7342306;32;20855;-61
2022/06/16 03:18:56;;;;;;;6.50;3.47;;;14.70;99.90;;;;;;7345894;32;20515;-62
2022/06/16 03:22:58;;;;;;;6.75;3.15;;;14.70;99.90;;;;;;7346301;32;20135;-61
2022/06/16 03:27:00;;;;;;;5.25;3.62;;;14.50;99.90;;;;;;7341005;32;20186;-61
2022/06/16 03:31:02;;;;;;;5.43;3.03;;;14.60;99.90;;;;;;7339052;32;20130;-62
2022/06/16 03:35:04;;;;;;;9.80;3.33;;;14.50;99.90;;;;;;7339867;32;20150;-62
2022/06/16 03:39:06;;;;;;;9.75;3.47;;;14.50;99.90;;;;;;7344935;32;20137;-62
2022/06/16 03:43:08;;;;;;;8.02;3.10;;;14.40;99.90;;;;;;7347066;32;20809;-61
2022/06/16 03:47:10;;;;;;;8.35;3.05;;;14.40;99.90;;;;;;7347649;32;20248;-61
2022/06/16 03:51:12;;;;;;;6.22;3.03;;;14.30;99.90;;;;;;7351215;32;20838;-61
2022/06/16 03:55:14;;;;;;;6.72;2.58;;;14.20;99.90;;;;;;7349416;32;20648;-62
2022/06/16 03:59:21;;;;;;;8.85;3.15;;;14.00;99.90;;;;;;7348024;32;20191;-61
2022/06/16 04:07:44;;;;;;;6.87;3.17;;;14.00;99.90;;;;;;7348105;32;20842;-61
2022/06/16 04:11:46;;;;;;;4.90;2.97;;;14.00;99.90;;;;;;7345489;32;20108;-63
2022/06/16 04:15:48;;;;;;;6.55;2.87;;;14.00;99.90;;;;;;7342976;32;20158;-61
2022/06/16 04:24:11;;;;;;;6.30;3.37;;;14.00;99.90;;;;;;7345378;32;20115;-61
2022/06/16 04:28:13;;;;;;;5.10;2.55;;;14.10;99.90;;;;;;7346629;32;20202;-63
2022/06/16 04:32:15;;;;;;;4.53;2.28;;;14.10;99.90;;;;;;7345591;32;20107;-62
2022/06/16 04:36:17;;;;;;;5.70;2.50;;;14.30;99.90;;;;;;7339974;32;20530;-63
2022/06/16 04:40:19;;;;;;;10.27;2.62;;;14.60;99.90;;;;;;7340844;32;20157;-63
2022/06/16 04:44:21;;;;;;;5.57;2.17;;;14.80;99.90;;;;;;7344875;32;20258;-62
2022/06/16 04:48:23;;;;;;;4.18;2.40;;;15.10;99.90;;;;;;7348375;32;20111;-61
2022/06/16 04:52:24;;;;;;;5.35;2.87;;;15.30;99.90;;;;;;7343977;32;20253;-61
2022/06/16 04:56:26;;;;;;;6.40;2.70;;;15.50;99.90;;;;;;7347786;32;20102;-62
2022/06/16 05:00:28;;;;;;;6.12;2.58;;;15.60;99.90;;;;;;7339897;32;20111;-61
2022/06/16 05:04:30;;;;;;;5.50;2.20;;;15.80;99.90;;;;;;7343758;32;20215;-61
2022/06/16 05:08:32;;;;;;;4.32;2.33;;;16.20;99.90;;;;;;7338250;32;20218;-62
2022/06/16 05:12:34;;;;;;;7.25;2.60;;;16.40;99.90;;;;;;7343172;32;20125;-62
2022/06/16 05:16:35;;;;;;;5.37;2.33;;;17.10;99.90;;;;;;7339200;32;20130;-62
2022/06/16 05:20:37;;;;;;;4.72;2.50;;;17.30;99.90;;;;;;7343509;32;20571;-61
2022/06/16 05:24:39;;;;;;;6.37;2.22;;;17.70;99.90;;;;;;7340365;32;20133;-61
2022/06/16 05:28:44;;;;;;;4.53;1.95;;;18.10;99.90;;;;;;7343555;32;20171;-62
2022/06/16 05:32:45;;;;;;;4.93;2.33;;;18.30;99.90;;;;;;7340583;32;20111;-63
2022/06/16 05:36:47;;;;;;;7.55;2.40;;;18.50;99.90;;;;;;7337088;32;20134;-61
2022/06/16 05:40:56;;;;;;;10.43;2.50;;;19.10;99.90;;;;;;7343772;32;20111;-65
2022/06/16 05:44:58;;;;;;;6.45;2.30;;;19.00;99.90;;;;;;7336109;32;20612;-65
2022/06/16 05:49:00;;;;;;;4.03;2.20;;;18.50;99.90;;;;;;7339895;32;20123;-64
2022/06/16 05:53:02;;;;;;;6.12;2.40;;;18.30;99.90;;;;;;7340422;32;20198;-64
2022/06/16 05:57:04;;;;;;;6.05;2.45;;;17.80;99.90;;;;;;7340159;32;20130;-66
2022/06/16 06:01:06;;;;;;;5.03;2.22;;;17.50;99.90;;;;;;7341403;32;20181;-66
2022/06/16 06:05:08;;;;;;;3.97;2.12;;;17.20;99.90;;;;;;7339515;32;20249;-64
2022/06/16 06:17:53;;;;;;;5.28;2.10;;;17.40;99.90;;;;;;7341324;32;20129;-65
2022/06/16 06:22:02;;;;;;;3.87;1.83;;;17.60;99.90;;;;;;7339325;32;20206;-65
2022/06/16 06:26:05;;;;;;;13.50;7.37;;;17.60;99.90;;;;;;7338539;32;20220;-64
2022/06/16 06:30:10;;;;;;;5.10;2.08;;;17.80;99.90;;;;;;7341281;32;20112;-64
2022/06/16 06:34:12;;;;;;;9.82;2.33;;;17.90;99.90;;;;;;7336932;32;20118;-63
2022/06/16 06:38:15;;;;;;;6.93;2.10;;;18.10;99.90;;;;;;7340498;32;20566;-63
2022/06/16 06:42:17;;;;;;;3.75;1.67;;;18.20;99.90;;;;;;7341073;32;20164;-64
2022/06/16 06:46:19;;;;;;;4.22;1.62;;;18.20;99.90;;;;;;7342438;32;20111;-64
2022/06/16 06:50:26;;;;;;;4.37;1.83;;;18.20;99.90;;;;;;7339424;32;20103;-61
2022/06/16 06:54:29;;;;;;;3.75;1.52;;;18.30;99.90;;;;;;7338370;32;20115;-61
2022/06/16 06:58:32;;;;;;;5.97;2.30;;;18.40;99.90;;;;;;7337082;32;20478;-62
2022/06/16 07:02:34;;;;;;;5.70;1.90;;;18.40;99.90;;;;;;7339505;32;20260;-64
2022/06/16 07:06:37;;;;;;;5.07;1.70;;;18.40;99.90;;;;;;7347454;32;20191;-58
2022/06/16 07:10:40;;;;;;;5.25;1.62;;;18.50;99.90;;;;;;7339181;32;20115;-58
2022/06/16 07:14:49;;;;;;;4.62;1.98;;;18.40;99.90;;;;;;7344926;32;20167;-58
2022/06/16 07:18:51;;;;;;;4.85;2.00;;;18.50;99.90;;;;;;7346622;32;20204;-58
2022/06/16 07:22:52;;;;;;;5.47;1.48;;;18.50;99.90;;;;;;7342000;32;20118;-56
2022/06/16 07:26:54;;;;;;;23.75;19.75;;;18.60;99.90;;;;;;7339214;32;20213;-65
2022/06/16 07:30:56;;;;;;;3.65;1.42;;;18.50;99.90;;;;;;7341669;32;20183;-63
2022/06/16 07:35:20;;;;;;;3.22;1.45;;;18.60;99.90;;;;;;7344034;32;20095;-63
2022/06/16 07:39:22;;;;;;;4.68;1.45;;;18.70;99.90;;;;;;7341384;32;20821;-65
2022/06/16 07:43:24;;;;;;;6.30;1.50;;;18.70;99.90;;;;;;7349241;32;20321;-62
2022/06/16 07:47:27;;;;;;;3.58;1.50;;;18.60;99.90;;;;;;7342881;32;20146;-62
2022/06/16 07:51:29;;;;;;;4.12;1.40;;;18.90;99.90;;;;;;7350009;32;20126;-59
2022/06/16 07:55:31;;;;;;;5.25;3.78;;;19.00;99.90;;;;;;7338263;32;20133;-63
2022/06/16 07:59:33;;;;;;;5.50;1.75;;;19.30;99.90;;;;;;7348549;32;20226;-59
2022/06/16 08:03:35;;;;;;;5.05;1.48;;;19.40;99.90;;;;;;7342476;32;20191;-61
2022/06/16 08:07:37;;;;;;;6.72;1.52;;;19.40;99.90;;;;;;7350488;32;20562;-67
2022/06/16 08:15:59;;;;;;;3.45;1.27;;;19.90;99.90;;;;;;7341671;32;20953;-64
2022/06/16 08:20:03;;;;;;;4.20;1.35;;;20.10;99.90;;;;;;7333715;32;21587;-62
2022/06/16 08:24:06;;;;;;;2.35;1.08;;;20.40;99.90;;;;;;7346196;32;20528;-60
2022/06/16 08:28:08;;;;;;;20.58;15.02;;;20.70;99.90;;;;;;7345218;32;20542;-67
2022/06/16 08:32:12;;;;;;;4.60;1.50;;;20.80;99.90;;;;;;7343771;32;20776;-66
2022/06/16 08:36:14;;;;;;;5.30;1.40;;;20.90;99.10;;;;;;7347006;32;20115;-65
2022/06/16 08:40:18;;;;;;;4.07;1.37;;;21.30;99.10;;;;;;7348372;32;20138;-66
2022/06/16 08:44:29;;;;;;;4.45;1.10;;;21.50;99.00;;;;;;7346325;32;20138;-65
2022/06/16 08:48:43;;;;;;;4.90;1.33;;;21.50;97.50;;;;;;7341562;32;20153;-67
2022/06/16 08:53:09;;;;;;;5.18;1.55;;;21.60;97.70;;;;;;7342117;32;20341;-66
2022/06/16 08:57:38;;;;;;;5.70;1.70;;;22.10;96.40;;;;;;7343748;32;20107;-66
2022/06/16 09:02:08;;;;;;;3.87;1.30;;;22.40;96.80;;;;;;7342825;32;20107;-66
2022/06/16 09:06:52;;;;;;;2.60;1.17;;;22.80;94.50;;;;;;7332920;32;20103;-66
2022/06/16 09:11:16;;;;;;;3.62;1.20;;;22.70;92.50;;;;;;7332529;32;20226;-67
2022/06/16 09:15:44;;;;;;;5.18;1.60;;;22.50;91.60;;;;;;7343986;32;20127;-66
2022/06/16 09:19:58;;;;;;;5.53;1.23;;;22.80;90.20;;;;;;7328918;32;20143;-67
2022/06/16 09:24:24;;;;;;;4.37;1.40;;;22.70;85.00;;;;;;7346559;32;20130;-67
2022/06/16 09:28:37;;;;;;;6.10;0.90;;;23.10;91.10;;;;;;7347669;32;21685;-66
2022/06/16 09:32:46;;;;;;;3.90;0.90;;;23.40;83.70;;;;;;7343333;32;20127;-69
2022/06/16 09:36:58;;;;;;;1.75;0.55;;;23.90;81.50;;;;;;7343356;32;20213;-65
2022/06/16 09:45:35;;;;;;;3.22;0.80;;;24.40;76.50;;;;;;7343027;32;20214;-60
2022/06/16 09:49:45;;;;;;;3.97;0.82;;;24.70;70.90;;;;;;7338105;32;20205;-65
2022/06/16 09:54:12;;;;;;;3.78;0.85;;;24.40;73.50;;;;;;7341252;32;20985;-66
2022/06/16 09:58:18;;;;;;;2.95;0.70;;;24.60;68.40;;;;;;7344405;32;20691;-65
2022/06/16 10:02:25;;;;;;;2.20;0.80;;;24.40;68.50;;;;;;7354045;32;20204;-65
2022/06/16 10:06:33;;;;;;;4.28;0.88;;;25.00;68.90;;;;;;7341021;32;20209;-65
2022/06/16 10:11:02;;;;;;;1.83;0.68;;;24.80;65.40;;;;;;7343045;32;20139;-64
2022/06/16 10:15:18;;;;;;;4.10;1.05;;;24.80;65.90;;;;;;7352055;32;20132;-65
2022/06/16 10:19:23;;;;;;;4.18;0.88;;;24.60;66.00;;;;;;7352209;32;20469;-64
2022/06/16 10:23:34;;;;;;;2.75;0.90;;;25.00;66.10;;;;;;7341604;32;20111;-65
2022/06/16 10:28:00;;;;;;;3.75;1.10;;;24.80;65.50;;;;;;7331715;32;20099;-64
2022/06/16 10:32:03;;;;;;;3.75;0.80;;;25.10;62.20;;;;;;7339976;32;20217;-64
2022/06/16 10:36:19;;;;;;;3.10;0.82;;;25.60;64.70;;;;;;7344550;32;20418;-64
2022/06/16 10:40:35;;;;;;;3.80;1.70;;;24.80;60.40;;;;;;7343337;32;20504;-64
2022/06/16 10:45:03;;;;;;;2.90;0.80;;;23.90;62.60;;;;;;7343965;32;20103;-65
2022/06/16 10:49:14;;;;;;;2.78;0.68;;;24.60;65.40;;;;;;7347602;32;20129;-64
2022/06/16 10:53:33;;;;;;;3.65;0.60;;;25.20;67.70;;;;;;7338901;32;20115;-64
2022/06/16 10:57:43;;;;;;;3.15;1.00;;;25.70;69.20;;;;;;7344777;32;20305;-64
2022/06/16 11:01:59;;;;;;;2.35;0.95;;;25.80;65.60;;;;;;7345010;32;20111;-66
2022/06/16 11:06:02;;;;;;;3.50;0.90;;;25.90;64.50;;;;;;7339475;32;20325;-64
2022/06/16 11:10:10;;;;;;;2.05;0.98;;;25.60;64.50;;;;;;7343185;32;20448;-65
2022/06/16 11:14:31;;;;;;;4.47;1.20;;;25.70;66.10;;;;;;7345081;32;20165;-65
2022/06/16 11:18:35;;;;;;;3.30;1.35;;;25.60;62.80;;;;;;7347638;32;20273;-64
2022/06/16 11:22:43;;;;;;;3.85;1.00;;;25.40;62.50;;;;;;7326550;32;20125;-65
2022/06/16 11:26:44;;;;;;;4.85;1.00;;;25.50;65.00;;;;;;7341885;32;20111;-65
2022/06/16 11:30:49;;;;;;;3.65;1.20;;;25.30;64.70;;;;;;7345295;32;20119;-65
2022/06/16 11:34:52;;;;;;;3.92;0.82;;;25.10;61.60;;;;;;7342313;32;20140;-65
2022/06/16 11:39:27;;;;;;;3.17;0.93;;;25.50;67.20;;;;;;7344023;32;20459;-65
2022/06/16 11:43:29;;;;;;;1.65;1.10;;;25.50;63.70;;;;;;7341257;32;20138;-65
2022/06/16 11:47:36;;;;;;;3.22;1.15;;;25.40;64.80;;;;;;7343805;32;20112;-64
2022/06/16 11:51:48;;;;;;;3.42;1.00;;;25.40;63.40;;;;;;7335929;32;20223;-65
2022/06/16 11:55:55;;;;;;;2.90;0.80;;;25.10;65.60;;;;;;7334805;32;20111;-65
2022/06/16 11:59:57;;;;;;;4.80;1.45;;;25.30;69.80;;;;;;7343893;32;20130;-65
2022/06/16 12:04:16;;;;;;;4.12;1.20;;;25.20;63.70;;;;;;7342120;32;20111;-66
2022/06/16 12:08:29;;;;;;;2.87;1.20;;;25.00;66.10;;;;;;7341193;32;20103;-65
2022/06/16 12:12:39;;;;;;;3.37;1.40;;;25.10;65.40;;;;;;7345307;32;20119;-64
2022/06/16 12:17:24;;;;;;;3.80;0.98;;;24.90;66.90;;;;;;7348151;32;20478;-65
2022/06/16 12:21:30;;;;;;;4.12;1.02;;;25.40;65.80;;;;;;7351030;32;20119;-64
2022/06/16 12:25:45;;;;;;;3.57;1.30;;;25.50;65.00;;;;;;7316733;32;20512;-65
2022/06/16 12:30:14;;;;;;;4.65;1.52;;;25.80;65.10;;;;;;7341025;32;20111;-63
2022/06/16 12:34:39;;;;;;;4.40;1.27;;;25.60;64.20;;;;;;7343731;32;20115;-65
2022/06/16 12:38:56;;;;;;;4.80;1.30;;;25.60;64.20;;;;;;7344249;32;20130;-64
2022/06/16 12:43:04;;;;;;;3.22;1.08;;;25.60;64.30;;;;;;7346438;32;20133;-65
2022/06/16 12:47:17;;;;;;;4.53;1.30;;;25.60;64.50;;;;;;7347027;32;20149;-65
2022/06/16 12:51:22;;;;;;;3.40;1.40;;;25.70;64.80;;;;;;7341653;32;20203;-65
2022/06/16 12:55:45;;;;;;;4.28;1.10;;;25.90;64.50;;;;;;7353433;32;20188;-64
2022/06/16 12:59:59;;;;;;;1.75;1.00;;;25.90;60.50;;;;;;7345096;32;20470;-65
2022/06/16 13:04:12;;;;;;;4.10;1.10;;;25.90;62.40;;;;;;7348996;32;20253;-65
2022/06/16 13:08:15;;;;;;;4.18;0.90;;;25.80;63.30;;;;;;7342222;32;20134;-65
2022/06/16 13:12:25;;;;;;;3.65;1.23;;;25.90;67.00;;;;;;7339421;32;20103;-64
2022/06/16 13:16:31;;;;;;;4.70;1.15;;;26.20;63.50;;;;;;7342068;32;20112;-65
2022/06/16 13:20:33;;;;;;;4.12;1.37;;;25.90;59.00;;;;;;7343997;32;20250;-64
2022/06/16 13:24:42;;;;;;;3.17;0.98;;;26.10;60.40;;;;;;7345209;32;20119;-64
2022/06/16 13:29:01;;;;;;;5.30;1.27;;;26.00;63.90;;;;;;7339614;32;20805;-64
2022/06/16 13:33:05;;;;;;;4.90;1.27;;;26.10;58.80;;;;;;7347889;32;22441;-64
2022/06/16 13:37:08;;;;;;;3.00;1.20;;;26.10;62.00;;;;;;7347768;32;20100;-64
2022/06/16 13:41:29;;;;;;;3.72;1.17;;;25.90;59.30;;;;;;7349239;32;20229;-66
2022/06/16 13:45:31;;;;;;;6.60;1.45;;;25.90;61.20;;;;;;7339993;32;20206;-66
2022/06/16 13:50:03;;;;;;;4.10;1.23;;;25.70;59.80;;;;;;7347236;32;20233;-66
2022/06/16 13:54:06;;;;;;;2.42;1.10;;;25.60;60.30;;;;;;7338514;32;20272;-66
2022/06/16 13:58:21;;;;;;;1.52;1.10;;;26.00;66.70;;;;;;7345098;32;20701;-65
2022/06/16 14:02:25;;;;;;;5.68;1.00;;;26.10;64.20;;;;;;7344185;32;20202;-65
2022/06/16 14:06:31;;;;;;;3.83;1.48;;;26.10;63.60;;;;;;7350709;32;20115;-66
2022/06/16 14:10:37;;;;;;;;;;;26.10;62.40;;;;;;7346174;32;20269;-65
2022/06/16 14:14:48;;;;;;;2.45;1.23;;;26.00;64.10;;;;;;7341883;32;20346;-65
2022/06/16 14:19:12;;;;;;;3.20;1.15;;;25.80;62.70;;;;;;7342410;32;20663;-65
2022/06/16 14:23:24;;;;;;;3.03;0.90;;;25.50;63.30;;;;;;7336109;32;20545;-65
2022/06/16 14:27:54;;;;;;;3.87;1.20;;;25.50;64.70;;;;;;7340191;32;20619;-65
2022/06/16 14:32:01;;;;;;;2.37;1.12;;;25.60;64.20;;;;;;7339782;32;20490;-64
2022/06/16 14:36:23;;;;;;;2.20;1.17;;;25.60;64.50;;;;;;7329325;32;20308;-67
2022/06/16 14:40:34;;;;;;;2.47;1.20;;;25.50;65.90;;;;;;7335958;32;20136;-67
2022/06/16 14:44:47;;;;;;;2.00;1.05;;;25.50;67.60;;;;;;7341694;32;20115;-66
2022/06/16 14:48:53;;;;;;;4.00;1.10;;;25.60;64.50;;;;;;7338519;32;20161;-67
2022/06/16 14:53:06;;;;;;;2.30;1.10;;;25.60;66.00;;;;;;7344538;32;20503;-68
2022/06/16 14:57:19;;;;;;;4.57;1.40;;;25.60;64.70;;;;;;7340274;32;20122;-68
2022/06/16 15:01:27;;;;;;;3.55;1.23;;;25.50;62.80;;;;;;7340689;32;20773;-67
2022/06/16 15:05:30;;;;;;;5.22;1.00;;;25.50;61.50;;;;;;7344373;32;20278;-65
2022/06/16 15:09:38;;;;;;;5.40;1.00;;;25.40;62.80;;;;;;7345578;32;20115;-66
2022/06/16 15:13:44;;;;;;;2.33;0.90;;;25.60;63.10;;;;;;7344495;32;20135;-66
2022/06/16 15:22:09;;;;;;;2.87;1.33;;;25.90;62.20;;;;;;7339264;32;20126;-66
2022/06/16 15:26:21;;;;;;;3.65;1.00;;;25.20;62.10;;;;;;7343465;32;20569;-66
2022/06/16 15:30:29;;;;;;;3.85;1.73;;;25.00;63.90;;;;;;7340075;32;20111;-66
2022/06/16 15:38:52;;;;;;;2.78;0.90;;;25.00;64.70;;;;;;7346120;32;20107;-66
2022/06/16 15:42:54;;;;;;;4.28;1.02;;;24.90;66.30;;;;;;7345117;32;20135;-66
2022/06/16 15:47:03;;;;;;;3.80;1.10;;;24.90;63.70;;;;;;7347721;32;20167;-67
2022/06/16 15:51:12;;;;;;;2.53;1.25;;;24.70;65.00;;;;;;7342051;32;20134;-67
2022/06/16 15:55:18;;;;;;;5.65;1.10;;;24.50;65.10;;;;;;7342590;32;20115;-66
2022/06/16 15:59:20;;;;;;;4.43;1.27;;;24.50;66.90;;;;;;7346215;32;20470;-66
2022/06/16 16:03:25;;;;;;;2.45;1.10;;;24.50;66.60;;;;;;7347083;32;20495;-67
2022/06/16 16:07:28;;;;;;;3.78;1.37;;;24.40;67.20;;;;;;7344237;32;20133;-67
2022/06/16 16:11:30;;;;;;;2.45;1.05;;;24.40;66.30;;;;;;7347842;32;20115;-67
2022/06/16 16:15:38;;;;;;;4.57;1.10;;;24.50;66.50;;;;;;7345009;32;20201;-66
2022/06/16 16:19:58;;;;;;;3.22;1.50;;;24.20;66.10;;;;;;7348719;32;20107;-66
2022/06/16 16:24:02;;;;;;;2.67;1.10;;;24.10;66.30;;;;;;7346847;32;20503;-67
2022/06/16 16:28:12;;;;;;;3.17;1.27;;;24.00;66.20;;;;;;7345482;32;20206;-67
2022/06/16 16:32:14;;;;;;;2.78;1.25;;;23.80;64.50;;;;;;7342933;32;20313;-67
2022/06/16 16:36:19;;;;;;;2.15;1.00;;;23.90;67.20;;;;;;7346552;32;20115;-66
2022/06/16 16:43:00;;;;;;;3.05;1.10;;;23.70;67.90;;;;;;7347843;32;20233;-67
2022/06/16 16:44:44;;;;;;;2.28;1.10;;;23.70;68.90;;;;;;7348792;32;20279;-66
2022/06/16 16:48:49;;;;;;;2.55;1.23;;;23.70;68.30;;;;;;7343628;32;20446;-67
2022/06/16 16:52:51;;;;;;;2.87;1.10;;;23.60;68.50;;;;;;7348274;32;20114;-65
2022/06/16 16:56:53;;;;;;;4.65;1.10;;;23.50;67.90;;;;;;7340568;32;20838;-66
2022/06/16 17:00:55;;;;;;;3.45;1.17;;;23.50;68.40;;;;;;7338890;32;20187;-64
2022/06/16 17:04:56;;;;;;;3.58;1.37;;;23.30;69.40;;;;;;7346444;32;20791;-65
2022/06/16 17:08:58;;;;;;;2.85;1.02;;;23.20;69.40;;;;;;7342894;32;20115;-66
2022/06/16 17:13:01;;;;;;;4.32;1.40;;;23.00;71.10;;;;;;7344640;32;20164;-65
2022/06/16 17:17:05;;;;;;;3.87;1.60;;;23.00;73.50;;;;;;7336782;32;20111;-67
2022/06/16 17:21:08;;;;;;;3.33;1.20;;;23.00;72.90;;;;;;7340986;32;20924;-67
2022/06/16 17:25:24;;;;;;;3.78;1.20;;;23.00;73.00;;;;;;7340590;32;20163;-67
2022/06/16 17:29:26;;;;;;;4.32;1.48;;;22.80;73.00;;;;;;7341635;32;20222;-66
2022/06/16 17:33:28;;;;;;;5.95;1.55;;;22.80;72.90;;;;;;7344188;32;20143;-66
2022/06/16 17:37:36;;;;;;;3.78;1.20;;;22.70;73.00;;;;;;7343397;32;20130;-65
2022/06/16 17:41:38;;;;;;;4.65;1.10;;;22.60;73.80;;;;;;7340018;32;20875;-66
2022/06/16 17:45:41;;;;;;;25.00;15.55;;;22.60;75.00;;;;;;7341730;32;20155;-66
2022/06/16 17:49:43;;;;;;;2.50;1.48;;;22.60;77.10;;;;;;7335553;32;20392;-65
2022/06/16 18:02:31;;;;;;;3.50;1.40;;;22.30;77.20;;;;;;7341374;32;20115;-57
2022/06/16 18:06:34;;;;;;;2.83;1.30;;;22.20;77.60;;;;;;7340116;32;20218;-58
2022/06/16 18:10:37;;;;;;;3.37;1.35;;;22.10;79.40;;;;;;7343397;32;20103;-58
2022/06/16 18:14:39;;;;;;;3.65;1.40;;;22.00;82.50;;;;;;7336471;32;20115;-67
2022/06/16 18:18:43;;;;;;;3.72;1.17;;;21.90;80.30;;;;;;7344282;32;20332;-63
2022/06/16 18:22:48;;;;;;;4.65;1.20;;;21.80;83.00;;;;;;7342917;32;20194;-62
2022/06/16 18:26:57;;;;;;;7.97;5.62;;;21.80;84.90;;;;;;7336688;32;20450;-65
2022/06/16 18:30:58;;;;;;;6.72;4.78;;;21.70;85.90;;;;;;7345243;32;20593;-63
2022/06/16 18:35:00;;;;;;;4.20;1.40;;;21.70;89.50;;;;;;7337771;32;20533;-65
2022/06/16 18:39:07;;;;;;;2.50;1.37;;;21.60;89.30;;;;;;7339800;32;20123;-58
2022/06/16 18:43:19;;;;;;;3.40;1.70;;;21.60;88.20;;;;;;7343104;32;20453;-58
2022/06/16 18:47:23;;;;;;;4.37;1.75;;;21.60;89.20;;;;;;7338446;32;20147;-58
2022/06/16 18:51:26;;;;;;;3.85;1.50;;;21.50;90.30;;;;;;7343597;32;20190;-58
2022/06/16 18:55:28;;;;;;;2.67;1.60;;;21.60;88.90;;;;;;7344029;32;20115;-59
2022/06/16 18:59:30;;;;;;;4.65;1.52;;;21.50;91.00;;;;;;7337051;32;20836;-58
2022/06/16 19:03:34;;;;;;;5.40;1.42;;;21.40;91.30;;;;;;7342358;32;20539;-57
2022/06/16 19:07:36;;;;;;;5.37;3.67;;;21.20;91.00;;;;;;7334206;32;20111;-65
2022/06/16 19:16:02;;;;;;;4.55;1.55;;;21.00;95.30;;;;;;7342811;32;20115;-62
2022/06/16 19:20:11;;;;;;;5.55;1.73;;;20.70;97.40;;;;;;7353902;32;20464;-59
2022/06/16 19:24:17;;;;;;;4.07;1.80;;;20.40;99.40;;;;;;7350060;32;20233;-65
2022/06/16 19:28:18;;;;;;;5.97;1.85;;;20.10;99.90;;;;;;7349290;32;20107;-64
2022/06/16 19:32:20;;;;;;;4.10;1.98;;;19.90;99.90;;;;;;7349788;32;20107;-65
2022/06/16 19:36:24;;;;;;;8.40;2.00;;;19.60;99.90;;;;;;7350364;32;20115;-65
2022/06/16 19:40:25;;;;;;;8.98;3.45;;;19.30;99.90;;;;;;7345908;32;20229;-66
2022/06/16 19:53:21;;;;;;;2.97;2.12;;;18.60;99.90;;;;;;7351610;32;20133;-65
2022/06/16 19:57:22;;;;;;;6.80;3.05;;;18.30;99.90;;;;;;7336910;32;20130;-65
2022/06/16 20:01:24;;;;;;;3.17;2.30;;;18.10;99.90;;;;;;7346644;32;20246;-66
2022/06/16 20:05:29;;;;;;;3.12;2.33;;;18.00;99.90;;;;;;7346068;32;20111;-64
2022/06/16 20:09:31;;;;;;;5.75;2.33;;;17.80;99.90;;;;;;7345059;32;20447;-64
2022/06/16 20:13:33;;;;;;;7.70;2.70;;;17.50;99.90;;;;;;7346589;32;20207;-63
2022/06/16 20:17:35;;;;;;;5.45;3.20;;;17.40;99.90;;;;;;7341704;32;20203;-65
2022/06/16 20:21:37;;;;;;;9.07;3.10;;;17.20;99.90;;;;;;7344935;32;20130;-64
2022/06/16 20:25:39;;;;;;;6.05;3.10;;;17.20;99.90;;;;;;7347679;32;20114;-62
2022/06/16 20:29:40;;;;;;;5.22;3.15;;;17.00;99.90;;;;;;7349579;32;20240;-61
2022/06/16 20:33:43;;;;;;;7.70;3.15;;;16.80;99.90;;;;;;7347142;32;20107;-61
2022/06/16 20:37:46;;;;;;;8.48;3.08;;;16.70;99.90;;;;;;7346440;32;20543;-64
2022/06/16 20:46:08;;;;;;;7.10;4.05;;;16.40;99.90;;;;;;7340902;32;20230;-66
2022/06/16 20:50:14;;;;;;;8.57;3.65;;;16.30;99.90;;;;;;7344379;32;20120;-65
2022/06/16 20:54:18;;;;;;;7.32;4.18;;;16.10;99.90;;;;;;7343010;32;20114;-66
2022/06/16 21:02:40;;;;;;;10.45;3.78;;;15.80;99.90;;;;;;7348759;32;20775;-64
2022/06/16 21:06:42;;;;;;;6.97;4.25;;;15.70;99.90;;;;;;7343850;32;20137;-62
2022/06/16 21:10:45;;;;;;;7.43;3.90;;;15.60;99.90;;;;;;7341997;32;20209;-62
2022/06/16 21:14:48;;;;;;;6.72;4.15;;;15.60;99.90;;;;;;7345596;32;20111;-64
2022/06/16 21:18:50;;;;;;;6.95;4.18;;;15.50;99.90;;;;;;7341743;32;20237;-62
2022/06/16 21:22:52;;;;;;;7.07;3.62;;;15.40;99.90;;;;;;7342967;32;20131;-62
2022/06/16 21:26:56;;;;;;;12.00;4.60;;;15.30;99.90;;;;;;7339986;32;20114;-62
2022/06/16 21:30:58;;;;;;;5.32;3.75;;;15.30;99.90;;;;;;7349656;32;20107;-61
2022/06/16 21:35:02;;;;;;;5.30;3.65;;;15.20;99.90;;;;;;7339299;32;20246;-62
2022/06/16 21:39:11;;;;;;;5.78;3.47;;;15.10;99.90;;;;;;7340124;32;20103;-60
2022/06/16 21:43:12;;;;;;;6.28;3.15;;;15.10;99.90;;;;;;7349432;32;20149;-60
2022/06/16 21:47:21;;;;;;;5.50;3.37;;;15.00;99.90;;;;;;7330995;32;20214;-61
2022/06/16 21:51:26;;;;;;;5.90;3.47;;;15.00;99.90;;;;;;7342880;32;20292;-60
2022/06/16 21:55:30;;;;;;;6.15;3.50;;;14.90;99.90;;;;;;7340773;32;20108;-60
2022/06/16 21:59:32;;;;;;;8.90;3.80;;;14.80;99.90;;;;;;7342821;32;20772;-60
2022/06/16 22:03:34;;;;;;;9.38;3.15;;;14.70;99.90;;;;;;7342155;32;20186;-62
2022/06/16 22:07:35;;;;;;;6.57;3.40;;;14.70;99.90;;;;;;7344728;32;20202;-61
2022/06/16 22:15:58;;;;;;;9.07;4.10;;;14.60;99.90;;;;;;7346515;32;20679;-61
2022/06/16 22:20:06;;;;;;;7.47;3.42;;;14.40;99.90;;;;;;7342871;32;20142;-60
2022/06/16 22:24:08;;;;;;;7.28;3.78;;;14.30;99.90;;;;;;7349424;32;20601;-62
2022/06/16 22:28:36;;;;;;;6.62;3.50;;;14.20;99.90;;;;;;7345531;32;20108;-60
2022/06/16 22:32:37;;;;;;;;;;;14.10;99.90;;;;;;7342990;32;20134;-60
2022/06/16 22:36:44;;;;;;;5.25;3.75;;;14.00;99.90;;;;;;7343833;32;20484;-62
2022/06/16 22:40:51;;;;;;;7.87;4.30;;;13.90;99.90;;;;;;7341360;32;20371;-62
2022/06/16 22:44:54;;;;;;;;;;;13.80;99.90;;;;;;7333221;32;20135;-60
2022/06/16 22:48:56;;;;;;;7.85;3.50;;;13.80;99.90;;;;;;7341328;32;20164;-61